SAVC/CRD METAR and TAF weather

Enter ICAO airport designator
Station Type Date Time Source
SAVC METAR 2019/08/18 08:00 UTC NOAA

SAVC 180800Z 27008KT 9999 FEW025 BKN060 04/M03 Q1035


Station Type Date Time Source
SAVC Decoded METAR 2019/08/18 08:00 UTC NOAA

Station name not available
Aug 18, 2019 - 04:00 AM EDT / 2019.08.18 0800 UTC
Wind: from the W (270 degrees) at 9 MPH (8 KT):0
Visibility: greater than 7 mile(s):0
Sky conditions: mostly cloudy
Temperature: 39 F (4 C)
Dew Point: 26 F (-3 C)
Relative Humidity: 60%
Pressure (altimeter): 30.56 in. Hg (1035 hPa)
ob: SAVC 180800Z 27008KT 9999 FEW025 BKN060 04/M03 Q1035
cycle: 8

Station Type Date Time Source
SAVC TAF 2019/08/18 06:33 UTC NOAA

TAF TAF SAVC 180500Z 1806/1906 23010KT 9999 SCT025 BKN045 TX10/1819Z TN01/1811Z
BECMG 1810/1812 29010KT
BECMG 1817/1819 05010KT

Example: see airport list